Time;durP1;ratioP1;P1;durP2;ratioP2;P2;SDS_P1;SDS_P2;PMS_P1;PMS_P2;Temp;Humidity;BMP_temperature;BMP_pressure;BME280_temperature;BME280_humidity;BME280_pressure;Samples;Min_cycle;Max_cycle;Signal;HPM_P1;HPM_P2
2022/05/08 00:01:41;;;;;;;14.77;13.20;;;13.80;99.90;;;;;;5053839;28;20444;-64
2022/05/08 00:04:08;;;;;;;16.13;13.87;;;13.70;99.90;;;;;;5053650;28;20520;-63
2022/05/08 00:06:35;;;;;;;13.83;11.97;;;13.80;99.90;;;;;;5053866;28;20447;-63
2022/05/08 00:09:02;;;;;;;16.07;14.47;;;13.80;99.90;;;;;;5053331;28;20441;-63
2022/05/08 00:11:30;;;;;;;16.03;13.57;;;13.80;99.90;;;;;;5053588;28;20544;-63
2022/05/08 00:13:58;;;;;;;15.53;13.90;;;13.70;99.90;;;;;;5053355;28;20904;-64
2022/05/08 00:16:26;;;;;;;14.00;12.50;;;13.70;99.90;;;;;;5053635;28;20476;-63
2022/05/08 00:18:53;;;;;;;15.53;12.90;;;13.70;99.90;;;;;;5053121;28;20436;-64
2022/05/08 00:21:22;;;;;;;14.10;12.70;;;13.70;99.90;;;;;;5049728;28;20837;-63
2022/05/08 00:23:51;;;;;;;11.90;10.53;;;13.60;99.90;;;;;;5053264;28;20437;-64
2022/05/08 00:26:19;;;;;;;12.80;11.50;;;13.60;99.90;;;;;;5053453;28;20506;-63
2022/05/08 00:28:46;;;;;;;14.73;12.30;;;13.60;99.90;;;;;;5052648;28;20452;-64
2022/05/08 00:31:15;;;;;;;16.50;13.80;;;13.60;99.90;;;;;;5053456;28;20465;-63
2022/05/08 00:33:42;;;;;;;16.67;13.50;;;13.60;99.90;;;;;;5052769;28;20511;-63
2022/05/08 00:36:10;;;;;;;15.43;13.10;;;13.60;99.90;;;;;;5053203;28;20441;-65
2022/05/08 00:38:39;;;;;;;14.60;13.10;;;13.50;99.90;;;;;;5048781;28;20432;-64
2022/05/08 00:41:08;;;;;;;14.90;12.63;;;13.50;99.90;;;;;;5053395;28;20429;-65
2022/05/08 00:43:38;;;;;;;14.47;12.97;;;13.50;99.90;;;;;;5052857;28;20440;-63
2022/05/08 00:46:07;;;;;;;14.37;12.93;;;13.60;99.90;;;;;;5048685;28;20891;-63
2022/05/08 00:48:42;;;;;;;15.53;13.93;;;13.60;99.90;;;;;;5051485;28;20498;-63
2022/05/08 00:51:10;;;;;;;16.50;13.43;;;13.60;99.90;;;;;;5051648;28;20448;-63
2022/05/08 00:53:48;;;;;;;16.00;14.20;;;13.60;99.90;;;;;;5051668;28;20519;-64
2022/05/08 00:56:17;;;;;;;14.80;12.97;;;13.60;99.90;;;;;;5051815;28;20506;-64
2022/05/08 00:58:47;;;;;;;15.33;13.60;;;13.60;99.90;;;;;;5051557;28;20441;-64
2022/05/08 01:01:15;;;;;;;14.57;13.07;;;13.60;99.90;;;;;;5051349;28;20448;-65
2022/05/08 01:03:44;;;;;;;15.87;14.13;;;13.60;99.90;;;;;;5051287;28;20443;-64
2022/05/08 01:06:14;;;;;;;15.27;13.70;;;13.60;99.90;;;;;;5053282;28;20529;-63
2022/05/08 01:08:42;;;;;;;15.93;14.00;;;13.60;99.90;;;;;;5052616;28;20437;-64
2022/05/08 01:11:13;;;;;;;16.20;12.90;;;13.70;99.90;;;;;;5053379;28;20441;-64
2022/05/08 01:13:43;;;;;;;15.50;13.40;;;13.70;99.90;;;;;;5052654;28;20461;-65
2022/05/08 01:16:12;;;;;;;14.70;13.20;;;13.60;99.90;;;;;;5052706;28;20536;-64
2022/05/08 01:18:42;;;;;;;15.50;14.00;;;13.70;99.90;;;;;;5053288;28;20515;-63
2022/05/08 01:21:13;;;;;;;15.37;12.37;;;13.60;99.90;;;;;;5052883;28;20481;-64
2022/05/08 01:23:42;;;;;;;14.57;13.00;;;13.60;99.90;;;;;;5052990;28;20441;-64
2022/05/08 01:26:10;;;;;;;13.30;11.90;;;13.60;99.90;;;;;;5052810;28;20440;-64
2022/05/08 01:28:37;;;;;;;14.33;12.83;;;13.70;99.90;;;;;;5053009;28;20437;-63
2022/05/08 01:31:05;;;;;;;14.13;12.67;;;13.60;99.90;;;;;;5052339;28;20445;-63
2022/05/08 01:33:34;;;;;;;14.60;12.97;;;13.60;99.90;;;;;;5052346;28;20465;-64
2022/05/08 01:36:02;;;;;;;13.30;11.90;;;13.60;99.90;;;;;;5052872;28;20623;-63
2022/05/08 01:38:31;;;;;;;14.70;13.20;;;13.70;99.90;;;;;;5052271;28;20831;-63
2022/05/08 01:41:04;;;;;;;15.03;13.50;;;13.60;99.90;;;;;;5052836;28;20445;-63
2022/05/08 01:43:34;;;;;;;16.03;14.30;;;13.60;99.90;;;;;;5052023;28;20443;-63
2022/05/08 01:46:02;;;;;;;13.80;12.30;;;13.70;99.90;;;;;;4840011;28;6104133;-63
2022/05/08 01:48:28;;;;;;;13.80;12.40;;;13.60;99.90;;;;;;5053058;28;20441;-64
2022/05/08 01:50:58;;;;;;;15.60;13.17;;;13.60;99.90;;;;;;5053759;28;20437;-63
2022/05/08 01:53:26;;;;;;;15.67;13.23;;;13.60;99.90;;;;;;5053291;28;20453;-63
2022/05/08 01:55:54;;;;;;;15.03;13.10;;;13.60;99.90;;;;;;5053640;28;20488;-64
2022/05/08 01:58:24;;;;;;;15.90;13.83;;;13.70;99.90;;;;;;5053591;28;20473;-64
2022/05/08 02:00:52;;;;;;;16.80;13.70;;;13.70;99.90;;;;;;5053122;28;20452;-64
2022/05/08 02:03:20;;;;;;;17.70;15.73;;;13.70;99.90;;;;;;5053342;28;20791;-64
2022/05/08 02:05:49;;;;;;;16.43;14.70;;;13.70;99.90;;;;;;5053215;28;20931;-63
2022/05/08 02:08:16;;;;;;;18.07;16.27;;;13.70;99.90;;;;;;5053358;28;20449;-64
2022/05/08 02:10:44;;;;;;;19.73;15.63;;;13.70;99.90;;;;;;5052974;28;20441;-64
2022/05/08 02:13:11;;;;;;;20.30;16.23;;;13.70;99.90;;;;;;5053396;28;20444;-64
2022/05/08 02:15:40;;;;;;;21.93;16.77;;;13.70;99.90;;;;;;5052102;28;20530;-63
2022/05/08 02:18:11;;;;;;;17.70;14.63;;;13.70;99.90;;;;;;5053292;28;20437;-64
2022/05/08 02:20:41;;;;;;;20.47;17.70;;;13.70;99.90;;;;;;5052917;28;20792;-64
2022/05/08 02:23:09;;;;;;;20.20;17.20;;;13.60;99.90;;;;;;5053102;28;20473;-63
2022/05/08 02:25:37;;;;;;;17.63;15.40;;;13.70;99.90;;;;;;5052706;28;20908;-64
2022/05/08 02:28:05;;;;;;;20.33;16.07;;;13.70;99.90;;;;;;5052574;28;20444;-63
2022/05/08 02:30:32;;;;;;;20.30;16.10;;;13.70;99.90;;;;;;5052486;28;20931;-63
2022/05/08 02:33:02;;;;;;;18.97;16.60;;;13.70;99.90;;;;;;5052346;28;20443;-63
2022/05/08 02:35:33;;;;;;;19.87;17.37;;;13.70;99.90;;;;;;5052718;28;20530;-63
2022/05/08 02:38:00;;;;;;;19.33;15.97;;;13.70;99.90;;;;;;5052620;28;20499;-63
2022/05/08 02:40:28;;;;;;;19.20;16.30;;;13.70;99.90;;;;;;5052756;28;20445;-64
2022/05/08 02:42:57;;;;;;;18.10;15.73;;;13.70;99.90;;;;;;5052221;28;20444;-63
2022/05/08 02:45:27;;;;;;;19.40;17.10;;;13.70;99.90;;;;;;5052503;28;20548;-63
2022/05/08 02:47:54;;;;;;;17.97;15.83;;;13.70;99.90;;;;;;5052005;28;20457;-63
2022/05/08 02:50:27;;;;;;;20.87;17.80;;;13.70;99.90;;;;;;5052868;28;20513;-64
2022/05/08 02:52:56;;;;;;;19.60;16.03;;;13.70;99.90;;;;;;5052375;28;20433;-63
2022/05/08 03:00:52;;;;;;;21.17;16.50;;;13.70;99.90;;;;;;5052695;28;20428;-63
2022/05/08 03:03:19;;;;;;;19.57;16.53;;;13.70;99.90;;;;;;5051790;28;21000;-64
2022/05/08 03:05:49;;;;;;;19.50;16.20;;;13.70;99.90;;;;;;5052603;28;20487;-64
2022/05/08 03:08:17;;;;;;;16.63;14.83;;;13.70;99.90;;;;;;5052261;28;20448;-64
2022/05/08 03:13:31;;;;;;;19.70;16.17;;;13.70;99.90;;;;;;5051777;28;20435;-63
2022/05/08 03:15:58;;;;;;;17.40;15.50;;;13.60;99.90;;;;;;5052146;28;20546;-63
2022/05/08 03:18:25;;;;;;;18.70;15.13;;;13.60;99.90;;;;;;5051938;28;20429;-64
2022/05/08 03:20:53;;;;;;;17.57;14.60;;;13.60;99.90;;;;;;5052228;28;20436;-64
2022/05/08 03:23:23;;;;;;;18.67;15.97;;;13.60;99.90;;;;;;5051905;28;20544;-64
2022/05/08 03:25:52;;;;;;;17.67;15.87;;;13.60;99.90;;;;;;5052064;28;20445;-64
2022/05/08 03:28:19;;;;;;;17.53;15.63;;;13.60;99.90;;;;;;5051753;28;20468;-63
2022/05/08 03:30:47;;;;;;;19.23;15.10;;;13.60;99.90;;;;;;5052108;28;20499;-65
2022/05/08 03:33:15;;;;;;;17.10;15.07;;;13.60;99.90;;;;;;5051855;28;20510;-65
2022/05/08 03:35:48;;;;;;;17.87;15.87;;;13.60;99.90;;;;;;5051935;28;20476;-63
2022/05/08 03:38:18;;;;;;;17.27;15.43;;;13.60;99.90;;;;;;5051404;28;20440;-63
2022/05/08 03:40:45;;;;;;;17.87;15.93;;;13.60;99.90;;;;;;5051909;28;20452;-64
2022/05/08 03:43:12;;;;;;;19.80;15.50;;;13.60;99.90;;;;;;5051806;28;20452;-63
2022/05/08 03:45:40;;;;;;;17.97;16.00;;;13.60;99.90;;;;;;5051988;28;20503;-64
2022/05/08 03:48:10;;;;;;;20.40;16.57;;;13.60;99.90;;;;;;5051184;28;20518;-64
2022/05/08 03:50:41;;;;;;;17.77;15.23;;;13.70;99.90;;;;;;5051864;28;20447;-64
2022/05/08 03:53:09;;;;;;;17.77;15.30;;;13.60;99.90;;;;;;5051489;28;20520;-63
2022/05/08 03:55:37;;;;;;;19.87;16.37;;;13.60;99.90;;;;;;5051582;28;20889;-64
2022/05/08 03:58:05;;;;;;;18.60;14.03;;;13.70;99.90;;;;;;5051351;28;20444;-63
2022/05/08 04:00:33;;;;;;;19.73;14.97;;;13.60;99.90;;;;;;5051740;28;20871;-63
2022/05/08 04:03:01;;;;;;;17.03;14.70;;;13.70;99.90;;;;;;5051707;28;20631;-63
2022/05/08 04:05:29;;;;;;;21.30;15.53;;;13.70;99.90;;;;;;5051865;28;20996;-63
2022/05/08 04:07:59;;;;;;;16.77;14.37;;;13.60;99.90;;;;;;5051947;28;20444;-64
2022/05/08 04:10:26;;;;;;;16.47;14.53;;;13.70;99.90;;;;;;5052035;28;20443;-63
2022/05/08 04:12:55;;;;;;;18.80;16.43;;;13.70;99.90;;;;;;5051514;28;20524;-63
2022/05/08 04:18:09;;;;;;;19.37;16.50;;;13.70;99.90;;;;;;5051633;28;20962;-64
2022/05/08 04:20:38;;;;;;;20.37;16.97;;;13.70;99.90;;;;;;5051985;28;20443;-64
2022/05/08 04:25:52;;;;;;;20.37;16.73;;;13.70;99.90;;;;;;5051972;28;20420;-63
2022/05/08 04:28:21;;;;;;;20.03;15.93;;;13.80;99.90;;;;;;5051443;28;20441;-64
2022/05/08 04:30:50;;;;;;;19.20;16.23;;;13.80;99.90;;;;;;5051733;28;20444;-64
2022/05/08 04:33:19;;;;;;;20.50;16.93;;;13.80;99.90;;;;;;5051222;28;20476;-64
2022/05/08 04:35:48;;;;;;;21.07;16.47;;;13.80;99.90;;;;;;5051905;28;20572;-64
2022/05/08 04:38:15;;;;;;;23.30;17.77;;;13.80;99.90;;;;;;5051654;28;20440;-64
2022/05/08 04:40:45;;;;;;;21.73;16.83;;;13.90;99.90;;;;;;5054829;28;20954;-63
2022/05/08 04:43:12;;;;;;;21.83;17.53;;;13.90;99.90;;;;;;5055014;28;20437;-63
2022/05/08 04:45:41;;;;;;;19.83;16.93;;;13.90;99.90;;;;;;5055513;28;20468;-64
2022/05/08 04:48:10;;;;;;;25.93;19.50;;;13.90;99.90;;;;;;5054885;28;20500;-64
2022/05/08 04:50:39;;;;;;;22.57;16.53;;;13.90;99.90;;;;;;5055368;28;20931;-64
2022/05/08 04:53:06;;;;;;;20.53;16.67;;;14.00;99.90;;;;;;5054698;28;20456;-64
2022/05/08 04:55:33;;;;;;;22.57;18.00;;;14.00;99.90;;;;;;5054995;28;20982;-64
2022/05/08 04:58:00;;;;;;;20.80;17.23;;;14.00;99.90;;;;;;5054508;28;21028;-64
2022/05/08 05:00:28;;;;;;;24.33;18.73;;;14.00;99.90;;;;;;5055027;28;20923;-64
2022/05/08 05:03:00;;;;;;;23.00;19.10;;;14.00;99.90;;;;;;5054707;28;20516;-64
2022/05/08 05:05:27;;;;;;;24.63;20.40;;;14.10;99.90;;;;;;5055067;28;20445;-63
2022/05/08 05:07:54;;;;;;;21.73;18.53;;;14.10;99.90;;;;;;5054669;28;20514;-63
2022/05/08 05:10:22;;;;;;;21.80;19.10;;;14.10;99.90;;;;;;5055229;28;20801;-64
2022/05/08 05:12:50;;;;;;;21.07;17.90;;;14.10;99.90;;;;;;5054654;28;20448;-64
2022/05/08 05:15:18;;;;;;;22.03;18.00;;;14.10;99.90;;;;;;5054672;28;20639;-64
2022/05/08 05:17:49;;;;;;;19.43;17.07;;;14.10;99.90;;;;;;5054118;28;20468;-65
2022/05/08 05:20:18;;;;;;;21.40;19.00;;;14.10;99.90;;;;;;5054691;28;20519;-63
2022/05/08 05:22:47;;;;;;;22.80;17.90;;;14.20;99.90;;;;;;5054273;28;20491;-65
2022/05/08 05:25:14;;;;;;;21.47;17.93;;;14.20;99.90;;;;;;5054677;28;20436;-65
2022/05/08 05:27:44;;;;;;;23.20;18.60;;;14.20;99.90;;;;;;5054494;28;20444;-64
2022/05/08 05:30:16;;;;;;;19.00;17.00;;;14.30;99.90;;;;;;5054785;28;20439;-64
2022/05/08 05:32:43;;;;;;;21.50;18.47;;;14.30;99.90;;;;;;5054020;28;20531;-64
2022/05/08 05:35:10;;;;;;;20.97;17.40;;;14.40;99.90;;;;;;5054503;28;20538;-64
2022/05/08 05:37:39;;;;;;;21.70;17.03;;;14.50;99.90;;;;;;5054486;28;20905;-64
2022/05/08 05:40:08;;;;;;;21.73;17.70;;;14.60;99.90;;;;;;5054360;28;20441;-64
2022/05/08 05:42:37;;;;;;;22.57;18.07;;;14.70;99.90;;;;;;5053728;28;20455;-63
2022/05/08 05:45:06;;;;;;;19.70;16.43;;;14.70;99.90;;;;;;5054045;28;20439;-64
2022/05/08 05:47:50;;;;;;;18.90;16.47;;;14.80;99.90;;;;;;5053603;28;20479;-64
2022/05/08 05:50:18;;;;;;;19.70;17.43;;;14.90;99.90;;;;;;5053264;28;20709;-63
2022/05/08 05:52:47;;;;;;;20.30;17.50;;;14.90;99.90;;;;;;5053443;28;20433;-64
2022/05/08 05:55:14;;;;;;;18.30;15.83;;;14.90;99.90;;;;;;5054122;28;20530;-64
2022/05/08 05:57:41;;;;;;;18.67;16.30;;;15.00;99.90;;;;;;5054015;28;20441;-64
2022/05/08 06:00:11;;;;;;;19.30;17.30;;;15.00;99.90;;;;;;5053847;28;20429;-64
2022/05/08 06:02:39;;;;;;;20.63;16.93;;;15.10;99.90;;;;;;5053364;28;20449;-64
2022/05/08 06:05:09;;;;;;;20.63;16.30;;;15.20;99.90;;;;;;5050169;28;20935;-63
2022/05/08 06:07:37;;;;;;;20.57;17.30;;;15.20;99.90;;;;;;5053956;28;20988;-63
2022/05/08 06:10:10;;;;;;;20.47;17.73;;;15.30;99.90;;;;;;5053442;28;20494;-64
2022/05/08 06:12:38;;;;;;;20.03;17.93;;;15.40;99.90;;;;;;5053454;28;20440;-63
2022/05/08 06:15:08;;;;;;;19.77;17.20;;;15.40;99.90;;;;;;5053205;28;20523;-63
2022/05/08 06:17:37;;;;;;;20.20;17.90;;;15.40;99.90;;;;;;5053435;28;20475;-64
2022/05/08 06:20:08;;;;;;;20.57;17.73;;;15.50;99.90;;;;;;5053496;28;20441;-63
2022/05/08 06:22:35;;;;;;;18.67;16.67;;;15.50;99.90;;;;;;5053693;28;20459;-63
2022/05/08 06:25:03;;;;;;;21.43;18.00;;;15.50;99.90;;;;;;5053142;28;20799;-64
2022/05/08 06:27:31;;;;;;;18.70;16.40;;;15.50;99.90;;;;;;5053596;28;20437;-63
2022/05/08 06:29:59;;;;;;;20.57;18.30;;;15.50;99.80;;;;;;5053098;28;20437;-65
2022/05/08 06:32:26;;;;;;;18.03;16.10;;;15.60;99.80;;;;;;5053346;28;20843;-64
2022/05/08 06:34:54;;;;;;;20.40;18.40;;;15.70;99.80;;;;;;5052700;28;20441;-66
2022/05/08 06:37:22;;;;;;;19.77;16.40;;;15.70;99.10;;;;;;5053359;28;20437;-64
2022/05/08 06:39:50;;;;;;;20.77;17.10;;;15.70;98.80;;;;;;5052746;28;20429;-64
2022/05/08 06:42:19;;;;;;;19.93;17.83;;;15.70;98.50;;;;;;5052918;28;20861;-64
2022/05/08 06:44:48;;;;;;;19.57;17.33;;;15.70;98.70;;;;;;5053265;28;20532;-64
2022/05/08 06:47:19;;;;;;;20.90;17.90;;;15.70;98.60;;;;;;5052492;28;20479;-64
2022/05/08 06:49:51;;;;;;;22.23;19.33;;;15.60;98.00;;;;;;5052891;28;20494;-64
2022/05/08 06:52:18;;;;;;;22.30;18.00;;;15.70;98.20;;;;;;5052888;28;20492;-64
2022/05/08 06:54:46;;;;;;;20.83;17.00;;;15.60;97.90;;;;;;5053035;28;20452;-63
2022/05/08 06:57:13;;;;;;;19.67;17.67;;;15.60;97.60;;;;;;5052450;28;20550;-63
2022/05/08 07:02:30;;;;;;;18.93;16.90;;;15.60;97.40;;;;;;5051985;28;20448;-63
2022/05/08 07:04:59;;;;;;;22.57;19.87;;;15.50;97.40;;;;;;5052917;28;20441;-63
2022/05/08 07:07:28;;;;;;;22.03;17.60;;;15.50;97.40;;;;;;5052750;28;20525;-63
2022/05/08 07:09:55;;;;;;;19.83;17.67;;;15.50;97.10;;;;;;5052810;28;20841;-64
2022/05/08 07:12:23;;;;;;;24.03;19.23;;;15.50;97.40;;;;;;5052002;28;20437;-64
2022/05/08 07:14:54;;;;;;;22.17;18.53;;;15.60;97.60;;;;;;5052823;28;20436;-63
2022/05/08 07:17:24;;;;;;;21.03;18.83;;;15.70;97.70;;;;;;5049096;28;20480;-64
2022/05/08 07:19:52;;;;;;;21.87;17.77;;;15.70;98.10;;;;;;5050438;28;20487;-64
2022/05/08 07:22:22;;;;;;;18.33;16.43;;;15.80;98.30;;;;;;5050609;28;20480;-64
2022/05/08 07:24:49;;;;;;;19.60;17.13;;;15.80;98.00;;;;;;5050848;28;20441;-64
2022/05/08 07:27:17;;;;;;;19.57;16.70;;;15.90;97.80;;;;;;5050066;28;20449;-64
2022/05/08 07:29:46;;;;;;;23.23;19.43;;;15.90;97.40;;;;;;5050677;28;20448;-63
2022/05/08 07:32:16;;;;;;;19.73;17.47;;;15.90;97.50;;;;;;5050428;28;20444;-64
2022/05/08 07:37:31;;;;;;;29.27;20.77;;;16.10;97.80;;;;;;5048711;28;20530;-64
2022/05/08 07:39:58;;;;;;;26.67;21.07;;;16.30;98.00;;;;;;5050312;28;20437;-63
2022/05/08 07:42:27;;;;;;;22.10;18.40;;;16.50;97.70;;;;;;5050315;28;20437;-63
2022/05/08 07:44:54;;;;;;;19.07;17.07;;;16.60;97.40;;;;;;5050788;28;20503;-65
2022/05/08 07:47:22;;;;;;;20.87;16.53;;;16.80;96.40;;;;;;5049761;28;20984;-65
2022/05/08 07:49:49;;;;;;;21.97;19.67;;;17.00;96.60;;;;;;5050068;28;20532;-64
2022/05/08 07:52:18;;;;;;;20.43;17.90;;;17.30;96.90;;;;;;5050089;28;20465;-64
2022/05/08 07:54:47;;;;;;;18.17;16.27;;;17.50;96.20;;;;;;5050397;28;20904;-63
2022/05/08 07:57:14;;;;;;;19.47;16.80;;;17.70;95.70;;;;;;5049353;28;20510;-66
2022/05/08 07:59:41;;;;;;;18.47;15.20;;;17.90;94.70;;;;;;5050487;28;20441;-65
2022/05/08 08:02:09;;;;;;;18.50;16.40;;;18.10;94.80;;;;;;5050320;28;20939;-64
2022/05/08 08:04:37;;;;;;;17.57;15.60;;;18.30;94.00;;;;;;5050006;28;20480;-64
2022/05/08 08:07:05;;;;;;;17.53;15.83;;;18.40;90.60;;;;;;5049967;28;20495;-65
2022/05/08 08:09:32;;;;;;;17.53;15.00;;;18.50;90.90;;;;;;5050122;28;20863;-64
2022/05/08 08:12:00;;;;;;;17.90;15.07;;;18.60;88.10;;;;;;5050110;28;20441;-64
2022/05/08 08:14:29;;;;;;;19.30;15.20;;;18.40;86.70;;;;;;5050412;28;20764;-66
2022/05/08 08:17:10;;;;;;;15.90;14.30;;;18.40;87.80;;;;;;5049563;28;21016;-64
2022/05/08 08:19:44;;;;;;;18.00;15.13;;;18.40;86.60;;;;;;5054236;28;20947;-64
2022/05/08 08:22:15;;;;;;;16.80;15.07;;;18.40;87.30;;;;;;5050397;28;20490;-65
2022/05/08 08:24:42;;;;;;;16.47;14.73;;;18.40;88.30;;;;;;5054803;28;20443;-65
2022/05/08 08:27:11;;;;;;;15.90;14.23;;;18.40;83.70;;;;;;5054321;28;20437;-65
2022/05/08 08:29:38;;;;;;;16.30;14.70;;;18.40;84.30;;;;;;5047380;28;20437;-64
2022/05/08 08:32:05;;;;;;;17.27;14.40;;;18.30;86.30;;;;;;5052989;28;20487;-64
2022/05/08 08:34:33;;;;;;;16.50;14.77;;;18.30;87.50;;;;;;5053813;28;20894;-64
2022/05/08 08:37:00;;;;;;;17.23;15.30;;;18.30;86.40;;;;;;5052787;28;20485;-64
2022/05/08 08:39:27;;;;;;;19.50;15.20;;;18.10;85.80;;;;;;5053477;28;20941;-64
2022/05/08 08:42:01;;;;;;;16.07;14.37;;;18.10;86.20;;;;;;5053012;28;20950;-64
2022/05/08 08:47:45;;;;;;;15.73;14.17;;;17.90;85.40;;;;;;5037128;28;20793;-64
2022/05/08 08:50:13;;;;;;;17.60;15.70;;;17.90;85.90;;;;;;5053672;28;20469;-66
2022/05/08 08:52:41;;;;;;;17.57;14.77;;;17.90;85.90;;;;;;5053144;28;20476;-64
2022/05/08 08:55:09;;;;;;;17.40;15.50;;;18.10;87.60;;;;;;5053181;28;20481;-64
2022/05/08 08:57:36;;;;;;;15.80;14.20;;;18.40;86.20;;;;;;5052138;28;20570;-64
2022/05/08 09:00:07;;;;;;;17.70;15.90;;;18.70;81.50;;;;;;5052539;28;20593;-64
2022/05/08 09:02:35;;;;;;;16.17;14.47;;;18.80;82.10;;;;;;5053340;28;20444;-64
2022/05/08 09:05:05;;;;;;;17.20;15.40;;;18.90;81.70;;;;;;5053096;28;20476;-64
2022/05/08 09:07:39;;;;;;;17.23;15.60;;;18.90;82.10;;;;;;5052807;28;20516;-65
2022/05/08 09:10:14;;;;;;;15.40;13.70;;;18.80;81.20;;;;;;5053150;28;20467;-63
2022/05/08 09:12:44;;;;;;;17.30;15.37;;;18.60;80.10;;;;;;5052914;28;20452;-64
2022/05/08 09:15:25;;;;;;;15.27;13.77;;;18.30;82.40;;;;;;5050988;28;20459;-64
2022/05/08 09:17:54;;;;;;;16.67;15.00;;;18.20;82.30;;;;;;5052467;28;20475;-65
2022/05/08 09:20:29;;;;;;;16.83;15.13;;;18.10;81.60;;;;;;5052761;28;20505;-64
2022/05/08 09:23:08;;;;;;;17.13;15.30;;;17.90;81.90;;;;;;5053074;28;20981;-63
2022/05/08 09:25:47;;;;;;;16.93;15.13;;;17.70;83.30;;;;;;5052348;28;20480;-64
2022/05/08 09:28:14;;;;;;;16.27;14.57;;;17.70;85.20;;;;;;5052554;28;20992;-66
2022/05/08 09:31:01;;;;;;;17.03;14.77;;;17.80;86.10;;;;;;5052816;28;20486;-64
2022/05/08 09:33:31;;;;;;;16.20;14.50;;;18.10;87.90;;;;;;5052034;28;20473;-65
2022/05/08 09:35:59;;;;;;;17.70;15.90;;;18.60;87.30;;;;;;5052878;28;20472;-63
2022/05/08 09:38:42;;;;;;;16.97;14.07;;;19.00;87.10;;;;;;5052723;28;20437;-64
2022/05/08 09:41:10;;;;;;;17.10;13.87;;;19.50;83.30;;;;;;5051621;28;20479;-64
2022/05/08 09:43:38;;;;;;;14.37;12.80;;;19.90;80.80;;;;;;5052403;28;20444;-65
2022/05/08 09:46:07;;;;;;;16.60;12.27;;;19.90;79.40;;;;;;5052274;28;20475;-64
2022/05/08 09:48:35;;;;;;;13.60;12.20;;;19.90;80.90;;;;;;5047808;28;20429;-64
2022/05/08 09:51:04;;;;;;;13.87;12.43;;;19.80;79.20;;;;;;5052394;28;20440;-64
2022/05/08 09:53:32;;;;;;;13.80;12.40;;;19.60;78.70;;;;;;5052038;28;20433;-64
2022/05/08 09:56:00;;;;;;;15.10;12.40;;;19.50;75.80;;;;;;5051972;28;20484;-64
2022/05/08 09:58:28;;;;;;;13.90;11.93;;;19.20;74.70;;;;;;5051375;28;20441;-64
2022/05/08 10:00:56;;;;;;;14.87;12.67;;;19.00;75.40;;;;;;5052259;28;20535;-64
2022/05/08 10:03:26;;;;;;;14.93;13.07;;;18.70;76.10;;;;;;5051587;28;20520;-64
2022/05/08 10:05:55;;;;;;;13.57;12.20;;;18.50;78.20;;;;;;5050051;28;20449;-64
2022/05/08 10:08:24;;;;;;;15.37;13.33;;;18.30;77.90;;;;;;5049495;28;20502;-63
2022/05/08 10:13:58;;;;;;;12.73;11.43;;;18.10;79.10;;;;;;5050110;28;21001;-63
2022/05/08 10:17:01;;;;;;;12.73;11.43;;;18.10;79.20;;;;;;5051762;28;20516;-64
2022/05/08 10:20:00;;;;;;;14.03;12.30;;;18.10;79.50;;;;;;5044865;28;20444;-64
2022/05/08 10:22:47;;;;;;;13.70;12.37;;;18.10;80.30;;;;;;5051366;28;20532;-65
2022/05/08 10:25:15;;;;;;;13.40;12.00;;;18.20;80.30;;;;;;5050154;28;20429;-64
2022/05/08 10:28:03;;;;;;;13.57;12.17;;;18.20;79.90;;;;;;5051150;28;20437;-64
2022/05/08 10:30:33;;;;;;;11.53;10.33;;;18.40;80.80;;;;;;5046130;28;20495;-66
2022/05/08 10:33:01;;;;;;;11.87;10.23;;;18.60;77.10;;;;;;5049979;28;20508;-64
2022/05/08 10:35:32;;;;;;;9.97;8.93;;;18.60;77.10;;;;;;5048566;28;20445;-64
2022/05/08 10:38:23;;;;;;;11.70;9.07;;;18.50;75.60;;;;;;5049600;28;20477;-64
2022/05/08 10:40:51;;;;;;;11.73;10.43;;;18.60;77.40;;;;;;5030786;28;20449;-64
2022/05/08 10:43:32;;;;;;;15.17;9.37;;;18.60;78.40;;;;;;5048985;28;20449;-64
2022/05/08 10:46:21;;;;;;;11.60;10.43;;;18.70;78.80;;;;;;5050288;28;20459;-63
2022/05/08 10:48:48;;;;;;;13.80;10.77;;;18.90;78.30;;;;;;5049146;28;20539;-64
2022/05/08 10:51:17;;;;;;;12.77;10.17;;;18.90;79.40;;;;;;5050058;28;20456;-64
2022/05/08 10:53:44;;;;;;;12.10;10.80;;;19.00;78.70;;;;;;5049901;28;20826;-64
2022/05/08 10:56:11;;;;;;;11.00;10.00;;;19.20;76.70;;;;;;5050362;28;20447;-64
2022/05/08 10:58:40;;;;;;;13.20;11.83;;;19.10;76.00;;;;;;5049747;28;20561;-64
2022/05/08 11:01:10;;;;;;;12.17;10.90;;;19.20;77.70;;;;;;5049392;28;20456;-64
2022/05/08 11:03:37;;;;;;;13.47;11.07;;;19.20;78.20;;;;;;5049009;28;20531;-64
2022/05/08 11:06:06;;;;;;;12.87;11.43;;;19.20;75.70;;;;;;5050218;28;20437;-64
2022/05/08 11:08:36;;;;;;;11.57;10.47;;;19.20;75.90;;;;;;5049751;28;20441;-64
2022/05/08 11:11:07;;;;;;;13.20;11.30;;;19.40;74.90;;;;;;5049711;28;20445;-64
2022/05/08 11:13:53;;;;;;;11.77;10.57;;;19.40;75.20;;;;;;5048709;28;20448;-64
2022/05/08 11:16:37;;;;;;;11.77;10.67;;;19.60;75.10;;;;;;5046789;28;20464;-64
2022/05/08 11:19:05;;;;;;;11.90;10.57;;;19.70;74.90;;;;;;5049418;28;20440;-64
2022/05/08 11:21:33;;;;;;;13.83;10.20;;;19.80;72.30;;;;;;5048197;28;20441;-64
2022/05/08 11:24:03;;;;;;;11.40;10.10;;;19.70;73.60;;;;;;5048794;28;20449;-64
2022/05/08 11:26:32;;;;;;;10.43;9.43;;;19.70;73.10;;;;;;5049437;28;20455;-64
2022/05/08 11:29:00;;;;;;;9.53;8.53;;;19.50;71.90;;;;;;5049122;28;20445;-64
2022/05/08 11:31:28;;;;;;;9.30;8.37;;;19.30;73.30;;;;;;5049424;28;20926;-64
2022/05/08 11:36:40;;;;;;;9.10;8.20;;;19.20;74.30;;;;;;5049533;28;20432;-64
2022/05/08 11:39:12;;;;;;;9.27;8.27;;;19.30;73.90;;;;;;5049754;28;20536;-64
2022/05/08 11:41:41;;;;;;;9.40;8.40;;;19.50;75.00;;;;;;5048945;28;20441;-64
2022/05/08 11:44:32;;;;;;;8.13;7.33;;;19.60;73.80;;;;;;5049156;28;20520;-64
2022/05/08 11:47:00;;;;;;;9.20;8.30;;;19.60;71.70;;;;;;5034389;28;20959;-64
2022/05/08 11:49:29;;;;;;;9.07;7.20;;;19.50;73.30;;;;;;5051898;28;20514;-67
2022/05/08 11:51:58;;;;;;;7.07;6.43;;;19.40;73.30;;;;;;5053465;28;20805;-64
2022/05/08 11:54:29;;;;;;;7.37;6.67;;;19.50;70.20;;;;;;5050706;28;20546;-65
2022/05/08 11:57:12;;;;;;;9.70;5.90;;;19.30;70.20;;;;;;5051322;28;20491;-64
2022/05/08 11:59:39;;;;;;;7.83;7.10;;;19.20;71.60;;;;;;5051570;28;20449;-64
2022/05/08 12:02:07;;;;;;;8.03;7.23;;;19.10;71.00;;;;;;5053165;28;20464;-64
2022/05/08 12:04:35;;;;;;;8.53;7.63;;;19.00;72.40;;;;;;5052898;28;20990;-64
2022/05/08 12:07:04;;;;;;;9.33;6.93;;;18.90;71.50;;;;;;5052923;28;20855;-64
2022/05/08 12:09:35;;;;;;;8.00;7.20;;;18.90;72.20;;;;;;5050660;28;20463;-64
2022/05/08 12:12:23;;;;;;;7.60;6.80;;;18.80;73.40;;;;;;5053026;28;20502;-64
2022/05/08 12:14:50;;;;;;;8.13;7.33;;;18.80;72.30;;;;;;5051779;28;20494;-64
2022/05/08 12:17:17;;;;;;;9.37;8.40;;;18.70;72.60;;;;;;5051338;28;20484;-65
2022/05/08 12:19:52;;;;;;;7.13;6.43;;;18.50;73.20;;;;;;5050610;28;20437;-64
2022/05/08 12:22:22;;;;;;;8.40;7.03;;;18.50;73.70;;;;;;5051045;28;20818;-63
2022/05/08 12:24:50;;;;;;;8.30;7.43;;;18.50;74.80;;;;;;5051536;28;20523;-64
2022/05/08 12:27:17;;;;;;;8.63;7.80;;;18.60;77.60;;;;;;5051795;28;20867;-64
2022/05/08 12:29:46;;;;;;;7.70;6.90;;;18.80;77.20;;;;;;5051566;28;20508;-65
2022/05/08 12:32:14;;;;;;;8.80;7.10;;;19.10;77.80;;;;;;5050806;28;20463;-64
2022/05/08 12:34:42;;;;;;;9.20;7.07;;;19.50;77.80;;;;;;5049358;28;20444;-64
2022/05/08 12:37:10;;;;;;;7.00;6.30;;;19.90;77.10;;;;;;5052107;28;20826;-65
2022/05/08 12:39:37;;;;;;;6.40;5.80;;;20.10;75.60;;;;;;5050187;28;20526;-64
2022/05/08 12:42:07;;;;;;;7.20;6.20;;;20.50;74.40;;;;;;5051305;28;20894;-64
2022/05/08 12:44:36;;;;;;;8.80;6.30;;;20.70;73.90;;;;;;5050550;28;20437;-64
2022/05/08 12:47:04;;;;;;;8.07;6.07;;;20.80;73.10;;;;;;5050678;28;20496;-64
2022/05/08 12:49:31;;;;;;;8.47;6.47;;;20.80;69.00;;;;;;5051098;28;20549;-64
2022/05/08 12:51:58;;;;;;;8.10;7.30;;;20.60;68.30;;;;;;5050650;28;20440;-64
2022/05/08 12:54:25;;;;;;;7.60;6.90;;;20.60;69.60;;;;;;5051395;28;20475;-65
2022/05/08 12:56:52;;;;;;;7.53;6.77;;;20.70;69.80;;;;;;5052127;28;20448;-64
2022/05/08 13:02:05;;;;;;;10.00;7.23;;;20.80;67.00;;;;;;5051644;28;20503;-64
2022/05/08 13:04:33;;;;;;;8.90;7.63;;;20.60;66.80;;;;;;5051344;28;20449;-65
2022/05/08 13:07:00;;;;;;;7.80;7.00;;;20.40;67.50;;;;;;5050062;28;20444;-64
2022/05/08 13:09:26;;;;;;;6.00;5.40;;;20.30;65.90;;;;;;5052260;28;20449;-64
2022/05/08 13:11:54;;;;;;;7.60;6.80;;;20.20;65.80;;;;;;5051168;28;20441;-65
2022/05/08 13:14:22;;;;;;;8.03;7.23;;;20.00;64.10;;;;;;5050305;28;20437;-66